Time;durP1;ratioP1;P1;durP2;ratioP2;P2;SDS_P1;SDS_P2;PMS_P1;PMS_P2;Temp;Humidity;BMP_temperature;BMP_pressure;BME280_temperature;BME280_humidity;BME280_pressure;Samples;Min_cycle;Max_cycle;Signal;HPM_P1;HPM_P2
2021/10/17 00:00:25;;;;;;;50.47;13.48;;;;;;;5.23;100.00;96173.28;5119931;28;24428;-78
2021/10/17 00:02:52;;;;;;;20.60;12.65;;;;;;;5.28;100.00;96176.53;5120772;28;24428;-77
2021/10/17 00:05:20;;;;;;;14.23;12.88;;;;;;;5.43;100.00;96175.13;5116941;27;24467;-77
2021/10/17 00:07:47;;;;;;;25.52;13.88;;;;;;;5.43;100.00;96177.69;5114062;28;24502;-77
2021/10/17 00:10:17;;;;;;;14.85;13.45;;;;;;;5.47;100.00;96174.13;5113136;28;24482;-75
2021/10/17 00:12:44;;;;;;;15.03;13.67;;;;;;;5.51;100.00;96180.00;5112995;28;24428;-75
2021/10/17 00:15:15;;;;;;;15.45;13.85;;;;;;;5.49;100.00;96187.78;5112458;28;24436;-75
2021/10/17 00:17:43;;;;;;;21.08;15.43;;;;;;;5.37;100.00;96182.22;5112285;28;24457;-75
2021/10/17 00:20:11;;;;;;;18.77;16.60;;;;;;;5.25;100.00;96189.47;5112744;28;24956;-75
2021/10/17 00:22:39;;;;;;;18.90;15.13;;;;;;;5.42;100.00;96181.19;5112205;28;24973;-75
2021/10/17 00:25:07;;;;;;;16.55;14.65;;;;;;;5.52;100.00;96172.22;5112024;28;24466;-75
2021/10/17 00:27:33;;;;;;;18.13;16.30;;;;;;;5.47;100.00;96179.25;5112777;28;24425;-75
2021/10/17 00:30:00;;;;;;;18.25;16.42;;;;;;;5.52;100.00;96181.66;5112890;28;24418;-74
2021/10/17 00:32:28;;;;;;;16.35;14.82;;;;;;;5.64;100.00;96176.09;5112339;28;24425;-75
2021/10/17 00:34:54;;;;;;;16.80;15.00;;;;;;;5.72;100.00;96175.81;5112328;28;24426;-75
2021/10/17 00:37:21;;;;;;;18.42;15.48;;;;;;;5.64;100.00;96175.25;5111629;28;24990;-75
2021/10/17 00:39:50;;;;;;;20.23;16.60;;;;;;;5.61;100.00;96175.38;5112212;28;24971;-75
2021/10/17 00:42:17;;;;;;;17.77;15.47;;;;;;;5.67;100.00;96164.84;5091688;28;24516;-75
2021/10/17 00:44:44;;;;;;;19.63;16.25;;;;;;;5.56;100.00;96167.81;5091362;28;25004;-76
2021/10/17 00:47:10;;;;;;;18.30;16.50;;;;;;;5.64;100.00;96162.41;5091904;28;24472;-75
2021/10/17 00:49:38;;;;;;;20.50;16.75;;;;;;;5.54;100.00;96170.44;5091736;28;24414;-74
2021/10/17 00:52:05;;;;;;;17.73;15.98;;;;;;;5.63;100.00;96168.44;5091779;28;24429;-75
2021/10/17 00:54:31;;;;;;;17.88;16.08;;;;;;;5.47;100.00;96173.28;5091206;28;25196;-74
2021/10/17 00:56:58;;;;;;;18.42;16.48;;;;;;;5.47;100.00;96161.28;5091400;28;25002;-74
2021/10/17 00:59:24;;;;;;;16.60;15.00;;;;;;;5.63;100.00;96164.13;5091737;28;24421;-75
2021/10/17 01:01:51;;;;;;;22.65;17.40;;;;;;;5.55;100.00;96164.41;5091763;28;24410;-74
2021/10/17 01:04:17;;;;;;;19.13;16.23;;;;;;;5.64;100.00;96164.97;5091329;28;24495;-75
2021/10/17 01:06:45;;;;;;;20.48;17.35;;;;;;;5.59;100.00;96155.69;5091249;28;24422;-74
2021/10/17 01:09:11;;;;;;;22.75;16.95;;;;;;;5.67;100.00;96163.09;5091360;28;24838;-74
2021/10/17 01:11:43;;;;;;;21.30;16.92;;;;;;;5.69;100.00;96156.19;5091815;28;24429;-74
2021/10/17 01:14:10;;;;;;;20.52;16.25;;;;;;;5.67;100.00;96149.44;5091111;28;24487;-76
2021/10/17 01:16:39;;;;;;;17.60;15.80;;;;;;;5.67;100.00;96155.41;5090487;28;24944;-74
2021/10/17 01:19:05;;;;;;;20.35;15.93;;;;;;;5.64;100.00;96149.56;5090971;28;24504;-75
2021/10/17 01:21:33;;;;;;;18.05;16.25;;;;;;;5.62;100.00;96149.59;5090853;28;24506;-75
2021/10/17 01:24:00;;;;;;;20.75;17.17;;;;;;;5.55;100.00;96143.00;5090965;28;24475;-75
2021/10/17 01:26:26;;;;;;;18.25;16.33;;;;;;;5.63;100.00;96145.31;5091054;28;24429;-75
2021/10/17 01:28:52;;;;;;;18.73;16.73;;;;;;;5.63;100.00;96142.72;5090869;28;24966;-75
2021/10/17 01:31:19;;;;;;;20.88;18.65;;;;;;;5.41;100.00;96138.38;5090798;28;24422;-74
2021/10/17 01:33:45;;;;;;;23.27;17.00;;;;;;;5.42;100.00;96124.66;5091052;28;24421;-74
2021/10/17 01:36:12;;;;;;;24.73;17.42;;;;;;;5.49;100.00;96131.25;5090767;28;24776;-75
2021/10/17 01:38:39;;;;;;;20.10;18.00;;;;;;;5.49;100.00;96128.69;5090657;28;24515;-75
2021/10/17 01:41:06;;;;;;;19.75;17.42;;;;;;;5.55;100.00;96127.59;5091038;28;24831;-75
2021/10/17 01:43:32;;;;;;;19.40;16.42;;;;;;;5.64;100.00;96134.97;5090561;28;24951;-75
2021/10/17 01:45:59;;;;;;;20.08;16.92;;;;;;;5.73;100.00;96141.50;5090286;28;25040;-75
2021/10/17 01:48:25;;;;;;;19.33;16.17;;;;;;;5.73;100.00;96129.47;5090806;28;24418;-75
2021/10/17 01:50:52;;;;;;;17.05;15.27;;;;;;;5.77;100.00;96140.47;5090897;28;24434;-75
2021/10/17 01:53:18;;;;;;;21.73;17.05;;;;;;;5.79;100.00;96133.56;5090368;28;24425;-75
2021/10/17 01:55:46;;;;;;;21.08;17.20;;;;;;;5.80;100.00;96125.78;5090472;28;24939;-74
2021/10/17 01:58:12;;;;;;;24.85;17.75;;;;;;;5.82;100.00;96125.72;5090610;28;24442;-75
2021/10/17 02:00:38;;;;;;;17.60;15.80;;;;;;;5.83;100.00;96124.84;5090421;28;24426;-74
2021/10/17 02:03:05;;;;;;;18.77;16.77;;;;;;;5.89;100.00;96124.59;5091216;28;24425;-75
2021/10/17 02:05:31;;;;;;;24.00;19.73;;;;;;;5.92;100.00;96121.94;5090818;28;24425;-75
2021/10/17 02:07:58;;;;;;;23.10;18.23;;;;;;;5.90;100.00;96123.72;5090448;28;24426;-75
2021/10/17 02:10:24;;;;;;;18.20;16.27;;;;;;;5.88;100.00;96124.66;5090426;28;24788;-76
2021/10/17 02:12:52;;;;;;;18.70;16.75;;;;;;;5.85;100.00;96124.75;5090414;28;24960;-75
2021/10/17 02:15:18;;;;;;;18.70;16.73;;;;;;;5.83;100.00;96119.69;5090245;28;24475;-76
2021/10/17 02:17:46;;;;;;;18.23;16.17;;;;;;;5.85;100.00;96119.63;5090198;28;24454;-75
2021/10/17 02:20:13;;;;;;;18.43;16.50;;;;;;;5.79;100.00;96125.84;5090600;28;24479;-75
2021/10/17 02:22:39;;;;;;;19.02;16.83;;;;;;;5.80;100.00;96112.94;5090524;28;24417;-75
2021/10/17 02:25:07;;;;;;;22.42;18.27;;;;;;;5.83;100.00;96122.28;5090100;28;24429;-76
2021/10/17 02:27:33;;;;;;;21.85;17.88;;;;;;;5.83;100.00;96122.28;5090280;28;24422;-75
2021/10/17 02:30:01;;;;;;;27.52;18.08;;;;;;;5.79;100.00;96116.41;5091367;28;24421;-76
2021/10/17 02:32:28;;;;;;;22.17;18.23;;;;;;;5.86;100.00;96118.72;5090833;28;24955;-77
2021/10/17 02:34:55;;;;;;;21.20;17.67;;;;;;;5.80;100.00;96115.50;5092427;28;24480;-77
2021/10/17 02:37:21;;;;;;;20.08;17.08;;;;;;;5.82;100.00;96110.28;5090826;28;24453;-77
2021/10/17 02:39:48;;;;;;;18.60;16.67;;;;;;;5.81;100.00;96116.34;5091268;28;24489;-76
2021/10/17 02:42:14;;;;;;;19.00;16.50;;;;;;;5.81;100.00;96113.75;5090973;28;24479;-76
2021/10/17 02:44:40;;;;;;;19.77;16.70;;;;;;;5.79;100.00;96116.41;5090592;28;24862;-77
2021/10/17 02:47:08;;;;;;;28.85;15.77;;;;;;;5.73;100.00;96115.78;5091013;28;24418;-76
2021/10/17 02:49:35;;;;;;;18.00;16.17;;;;;;;5.76;100.00;96119.09;5090855;28;24422;-76
2021/10/17 02:52:01;;;;;;;18.52;16.58;;;;;;;5.76;100.00;96118.25;5091157;28;24435;-77
2021/10/17 02:54:28;;;;;;;16.90;15.13;;;;;;;5.70;100.00;96116.75;5090979;28;25013;-77
2021/10/17 02:56:54;;;;;;;18.98;14.82;;;;;;;5.73;100.00;96110.66;5094607;28;24437;-77
2021/10/17 02:59:20;;;;;;;17.67;15.23;;;;;;;5.70;100.00;96121.88;5094481;28;24495;-77
2021/10/17 03:01:47;;;;;;;48.23;13.80;;;;;;;5.57;100.00;96113.81;5094725;28;24422;-78
2021/10/17 03:04:15;;;;;;;16.77;15.00;;;;;;;5.59;100.00;96112.00;5100383;28;24885;-77
2021/10/17 03:06:41;;;;;;;37.72;14.05;;;;;;;5.56;100.00;96117.28;5102613;28;24816;-77
2021/10/17 03:09:08;;;;;;;23.92;14.65;;;;;;;5.59;100.00;96124.03;5100904;28;24426;-77
2021/10/17 03:11:35;;;;;;;17.55;13.73;;;;;;;5.59;100.00;96119.72;5096776;28;24418;-77
2021/10/17 03:14:02;;;;;;;14.70;13.10;;;;;;;5.58;100.00;96119.78;5094865;28;25223;-76
2021/10/17 03:16:29;;;;;;;16.50;14.77;;;;;;;5.55;100.00;96110.44;5095137;28;24486;-77
2021/10/17 03:18:55;;;;;;;14.63;13.03;;;;;;;5.58;100.00;96106.94;5093845;28;24445;-77
2021/10/17 03:21:23;;;;;;;16.23;13.82;;;;;;;5.64;100.00;96109.28;5093377;28;24425;-77
2021/10/17 03:23:50;;;;;;;63.03;12.40;;;;;;;5.36;100.00;96106.91;5094414;28;24660;-77
2021/10/17 03:26:17;;;;;;;35.10;11.20;;;;;;;5.29;100.00;96102.88;5094406;28;24504;-77
2021/10/17 03:28:43;;;;;;;23.50;12.37;;;;;;;5.29;100.00;96101.13;5094040;28;24495;-77
2021/10/17 03:31:10;;;;;;;17.93;12.10;;;;;;;5.36;100.00;96106.91;5093624;28;24426;-77
2021/10/17 03:33:36;;;;;;;28.17;11.75;;;;;;;5.32;100.00;96098.47;5093405;28;24414;-77
2021/10/17 03:36:04;;;;;;;12.85;10.88;;;;;;;5.28;100.00;96094.34;5091894;28;24414;-77
2021/10/17 03:38:32;;;;;;;17.17;11.80;;;;;;;5.34;100.00;96094.13;5091090;28;24632;-78
2021/10/17 03:40:59;;;;;;;25.90;10.43;;;;;;;5.38;100.00;96094.84;5093354;28;24871;-77
2021/10/17 03:43:25;;;;;;;21.67;11.63;;;;;;;5.31;100.00;96106.25;5093123;28;24433;-77
2021/10/17 03:45:52;;;;;;;15.07;10.13;;;;;;;5.42;100.00;96096.41;5092813;28;24826;-78
2021/10/17 03:48:18;;;;;;;22.70;9.32;;;;;;;5.51;100.00;96095.22;5093097;28;24430;-78
2021/10/17 03:50:45;;;;;;;11.60;8.65;;;;;;;5.32;100.00;96101.03;5072856;28;24414;-77
2021/10/17 03:53:11;;;;;;;12.18;9.00;;;;;;;5.30;100.00;96101.97;5072501;28;24431;-77
2021/10/17 03:55:41;;;;;;;13.02;9.77;;;;;;;5.41;100.00;96102.41;5073014;28;24422;-78
2021/10/17 03:58:08;;;;;;;12.40;9.05;;;;;;;5.27;100.00;96104.69;5073519;28;25019;-78
2021/10/17 04:00:34;;;;;;;11.63;8.73;;;;;;;5.18;100.00;96110.97;5073312;28;24423;-77
2021/10/17 04:03:00;;;;;;;13.02;8.55;;;;;;;5.10;100.00;96095.84;5072882;28;24468;-77
2021/10/17 04:05:27;;;;;;;13.00;8.90;;;;;;;5.09;100.00;96109.56;5076767;28;24422;-77
2021/10/17 04:07:53;;;;;;;11.18;8.10;;;;;;;5.02;100.00;96099.59;5092956;28;24479;-78
2021/10/17 04:10:20;;;;;;;16.25;8.40;;;;;;;4.97;100.00;96102.31;5093635;28;24414;-78
2021/10/17 04:12:48;;;;;;;9.95;7.93;;;;;;;4.84;100.00;96098.50;5094300;28;24418;-78
2021/10/17 04:15:14;;;;;;;17.77;8.88;;;;;;;4.80;100.00;96104.63;5092997;28;24986;-78
2021/10/17 04:17:40;;;;;;;27.38;8.82;;;;;;;4.84;100.00;96096.75;5093324;28;24425;-78
2021/10/17 04:20:08;;;;;;;18.48;8.73;;;;;;;4.81;100.00;96094.31;5093530;28;24471;-77
2021/10/17 04:22:35;;;;;;;25.45;8.68;;;;;;;4.82;100.00;96090.00;5093785;28;24502;-78
2021/10/17 04:25:01;;;;;;;25.65;9.18;;;;;;;4.70;100.00;96098.13;5093438;28;24418;-77
2021/10/17 04:27:28;;;;;;;18.17;9.02;;;;;;;4.58;100.00;96091.69;5093411;28;24422;-77
2021/10/17 04:29:56;;;;;;;13.25;10.02;;;;;;;4.56;100.00;96098.59;5093267;28;24463;-77
2021/10/17 04:32:22;;;;;;;12.43;10.27;;;;;;;4.55;100.00;96094.38;5093475;28;24414;-78
2021/10/17 04:34:48;;;;;;;22.85;8.50;;;;;;;4.57;100.00;96100.28;5092477;28;24488;-78
2021/10/17 04:37:15;;;;;;;15.38;7.95;;;;;;;4.61;100.00;96102.69;5093110;28;24430;-77
2021/10/17 04:39:42;;;;;;;15.55;8.75;;;;;;;4.62;100.00;96095.84;5093695;28;24809;-78
2021/10/17 04:42:08;;;;;;;15.15;8.02;;;;;;;4.67;100.00;96103.38;5093339;28;24414;-77
2021/10/17 04:44:35;;;;;;;16.48;7.95;;;;;;;4.72;100.00;96094.63;5092303;28;24441;-77
2021/10/17 04:47:03;;;;;;;15.65;8.52;;;;;;;4.78;100.00;96097.00;5092504;28;24508;-78
2021/10/17 04:49:29;;;;;;;18.58;7.78;;;;;;;4.77;100.00;96091.91;5092927;28;24426;-78
2021/10/17 04:51:56;;;;;;;14.63;7.50;;;;;;;4.76;100.00;96090.22;5092457;28;24425;-78
2021/10/17 04:54:23;;;;;;;18.50;7.25;;;;;;;4.72;100.00;96088.66;5091310;28;24430;-76
2021/10/17 04:56:50;;;;;;;20.55;7.53;;;;;;;4.69;100.00;96087.03;5091679;28;24418;-78
2021/10/17 04:59:20;;;;;;;12.10;6.95;;;;;;;4.80;100.00;96086.66;5093126;28;24449;-78
2021/10/17 05:01:47;;;;;;;18.58;7.90;;;;;;;4.66;100.00;96081.19;5092716;28;24468;-77
2021/10/17 05:04:15;;;;;;;21.38;8.02;;;;;;;4.64;100.00;96080.41;5092873;28;24437;-78
2021/10/17 05:06:41;;;;;;;11.13;8.35;;;;;;;4.62;100.00;96083.00;5092283;28;24489;-77
2021/10/17 05:09:08;;;;;;;11.85;8.20;;;;;;;4.55;100.00;96087.50;5092966;28;24430;-78
2021/10/17 05:11:34;;;;;;;56.70;9.23;;;;;;;4.58;100.00;96092.53;5092773;28;24956;-78
2021/10/17 05:14:01;;;;;;;72.03;7.90;;;;;;;4.51;100.00;96085.94;5092349;28;25139;-78
2021/10/17 05:16:27;;;;;;;126.07;8.68;;;;;;;4.34;100.00;96083.13;5090619;28;24446;-76
2021/10/17 05:18:54;;;;;;;38.08;6.38;;;;;;;4.35;100.00;96089.91;5090338;28;24792;-76
2021/10/17 05:21:21;;;;;;;83.10;8.43;;;;;;;4.46;100.00;96081.88;5085580;28;24442;-76
2021/10/17 05:23:48;;;;;;;38.03;7.60;;;;;;;4.53;100.00;96081.59;5090997;28;24441;-75
2021/10/17 05:26:14;;;;;;;24.55;7.00;;;;;;;4.53;100.00;96075.63;5090924;28;24468;-76
2021/10/17 05:28:41;;;;;;;35.63;7.25;;;;;;;4.58;100.00;96086.56;5090870;28;24863;-76
2021/10/17 05:31:07;;;;;;;21.73;7.15;;;;;;;4.61;100.00;96082.19;5090781;28;24463;-76
2021/10/17 05:33:36;;;;;;;20.60;7.85;;;;;;;4.66;100.00;96083.75;5090938;28;24410;-76
2021/10/17 05:36:03;;;;;;;31.73;7.40;;;;;;;4.66;100.00;96088.88;5090861;28;24437;-76
2021/10/17 05:38:31;;;;;;;43.78;7.95;;;;;;;4.73;100.00;96086.03;5090466;28;24519;-76
2021/10/17 05:40:57;;;;;;;30.85;7.53;;;;;;;4.71;100.00;96082.72;5090702;28;24421;-76
2021/10/17 05:43:24;;;;;;;67.53;8.05;;;;;;;4.64;100.00;96085.53;5090902;28;24445;-75
2021/10/17 05:45:50;;;;;;;59.72;7.32;;;;;;;4.74;100.00;96084.31;5090584;28;24429;-76
2021/10/17 05:48:17;;;;;;;57.42;7.25;;;;;;;4.73;100.00;96087.78;5083309;28;24437;-76
2021/10/17 05:50:43;;;;;;;14.20;6.55;;;;;;;4.71;100.00;96092.97;5083600;28;24446;-78
2021/10/17 05:53:10;;;;;;;62.65;7.82;;;;;;;4.75;100.00;96097.09;5090952;28;24437;-77
2021/10/17 05:55:39;;;;;;;21.65;7.25;;;;;;;4.72;100.00;96096.38;5091760;28;24430;-77
2021/10/17 05:58:05;;;;;;;48.88;7.05;;;;;;;4.56;100.00;96099.47;5090846;28;24520;-76
2021/10/17 06:00:32;;;;;;;105.63;7.75;;;;;;;4.36;100.00;96107.81;5090466;28;24426;-76
2021/10/17 06:03:00;;;;;;;38.42;6.18;;;;;;;4.40;100.00;96115.41;5090479;28;24499;-75
2021/10/17 06:05:27;;;;;;;46.05;7.72;;;;;;;4.33;100.00;96114.75;5091502;28;24473;-77
2021/10/17 06:07:53;;;;;;;50.30;9.15;;;;;;;4.14;100.00;96111.94;5091841;28;24437;-78
2021/10/17 06:10:20;;;;;;;58.53;8.00;;;;;;;4.10;100.00;96112.94;5097699;28;24827;-78
2021/10/17 06:12:49;;;;;;;22.20;6.37;;;;;;;4.27;100.00;96123.50;5098008;28;24421;-77
2021/10/17 06:15:15;;;;;;;7.43;6.72;;;;;;;4.40;100.00;96121.34;5093968;28;24434;-78
2021/10/17 06:17:42;;;;;;;10.65;6.65;;;;;;;4.46;100.00;96121.16;5093366;28;24789;-78
2021/10/17 06:20:08;;;;;;;20.80;6.40;;;;;;;4.38;100.00;96130.84;5087008;28;24515;-76
2021/10/17 06:22:35;;;;;;;45.47;7.22;;;;;;;4.44;100.00;96132.34;5089809;28;24422;-76
2021/10/17 06:25:01;;;;;;;36.22;6.88;;;;;;;4.40;100.00;96139.31;5090177;28;24434;-77
2021/10/17 06:27:28;;;;;;;35.63;7.22;;;;;;;4.47;100.00;96138.22;5090138;28;24575;-77
2021/10/17 06:29:56;;;;;;;21.67;6.35;;;;;;;4.56;100.00;96140.50;5093366;28;24437;-77
2021/10/17 06:32:22;;;;;;;39.67;7.22;;;;;;;4.57;100.00;96147.31;5094852;28;24421;-77
2021/10/17 06:34:49;;;;;;;8.93;6.57;;;;;;;4.61;100.00;96155.72;5094139;28;24418;-77
2021/10/17 06:37:15;;;;;;;48.67;7.27;;;;;;;4.64;100.00;96154.81;5093840;28;24461;-77
2021/10/17 06:39:41;;;;;;;11.07;6.65;;;;;;;4.63;100.00;96153.94;5093998;28;24519;-76
2021/10/17 06:42:08;;;;;;;116.17;8.60;;;;;;;4.34;100.00;96162.63;5094513;28;24418;-77
2021/10/17 06:44:36;;;;;;;58.15;6.85;;;;;;;4.22;100.00;96162.97;5094566;28;24784;-77
2021/10/17 06:47:04;;;;;;;47.97;6.90;;;;;;;4.17;100.00;96162.28;5093988;28;24426;-77
2021/10/17 06:49:31;;;;;;;115.28;8.35;;;;;;;4.05;100.00;96163.53;5094230;28;24425;-77
2021/10/17 06:51:57;;;;;;;51.30;6.57;;;;;;;4.02;100.00;96164.44;5093777;28;24966;-76
2021/10/17 06:54:23;;;;;;;127.07;8.55;;;;;;;3.99;100.00;96166.25;5093507;28;24414;-77
2021/10/17 06:56:50;;;;;;;110.00;7.97;;;;;;;3.94;100.00;96168.97;5093302;28;24960;-76
2021/10/17 06:59:16;;;;;;;42.03;6.70;;;;;;;4.10;100.00;96167.59;5093747;28;24442;-76
2021/10/17 07:01:43;;;;;;;108.78;7.35;;;;;;;4.22;100.00;96162.97;5093542;28;24495;-76
2021/10/17 07:04:11;;;;;;;66.20;6.60;;;;;;;4.39;100.00;96173.53;5093486;28;24430;-78
2021/10/17 07:06:37;;;;;;;80.15;7.75;;;;;;;4.39;100.00;96172.72;5092040;28;24434;-77
2021/10/17 07:09:03;;;;;;;146.55;9.60;;;;;;;4.12;100.00;96170.13;5086688;28;24423;-78
2021/10/17 07:11:30;;;;;;;129.25;8.75;;;;;;;3.98;100.00;96170.56;5074068;28;24427;-77
2021/10/17 07:13:56;;;;;;;109.45;8.45;;;;;;;4.01;100.00;96172.19;5081134;28;24429;-75
2021/10/17 07:16:23;;;;;;;21.90;7.45;;;;;;;4.25;100.00;96175.72;5093610;28;24475;-78
2021/10/17 07:18:49;;;;;;;90.68;8.73;;;;;;;3.95;100.00;96170.63;5093627;28;24450;-76
2021/10/17 07:21:17;;;;;;;72.90;8.23;;;;;;;4.01;100.00;96182.44;5094055;28;24433;-77
2021/10/17 07:23:43;;;;;;;24.15;7.60;;;;;;;4.31;100.00;96180.66;5093508;28;24479;-78
2021/10/17 07:26:10;;;;;;;67.22;7.80;;;;;;;4.46;100.00;96185.28;5093965;28;24476;-77
2021/10/17 07:28:36;;;;;;;8.23;7.07;;;;;;;4.52;100.00;96185.06;5094334;28;24418;-76
2021/10/17 07:31:03;;;;;;;54.72;7.05;;;;;;;4.70;100.00;96193.06;5090735;28;24449;-77
2021/10/17 07:33:30;;;;;;;49.80;5.93;;;;;;;4.83;100.00;96181.53;5094782;28;24438;-78
2021/10/17 07:35:56;;;;;;;28.70;6.28;;;;;;;5.01;100.00;96183.47;5094131;28;24952;-77
2021/10/17 07:38:24;;;;;;;93.65;8.50;;;;;;;4.97;100.00;96187.03;5092958;28;24441;-76
2021/10/17 07:40:51;;;;;;;51.75;7.88;;;;;;;4.80;100.00;96191.88;5086147;28;24465;-77
2021/10/17 07:43:17;;;;;;;54.13;6.85;;;;;;;4.75;100.00;96191.22;5092968;28;24438;-76
2021/10/17 07:45:43;;;;;;;40.47;6.55;;;;;;;4.63;100.00;96189.84;5093344;28;24426;-77
2021/10/17 07:48:10;;;;;;;38.40;7.82;;;;;;;4.87;100.00;96206.19;5052400;28;24434;-77
2021/10/17 07:50:36;;;;;;;46.70;7.50;;;;;;;5.02;100.00;96195.41;5053026;28;24836;-77
2021/10/17 07:53:03;;;;;;;17.48;7.30;;;;;;;5.29;100.00;96193.59;5052651;28;24864;-76
2021/10/17 07:55:31;;;;;;;63.10;8.43;;;;;;;5.24;100.00;96189.53;5052654;28;24436;-76
2021/10/17 07:57:58;;;;;;;19.15;7.38;;;;;;;5.19;100.00;96192.25;5052719;28;24430;-77
2021/10/17 08:00:26;;;;;;;18.10;7.07;;;;;;;5.23;100.00;96193.84;5052927;28;24466;-76
2021/10/17 08:02:53;;;;;;;28.13;7.35;;;;;;;5.59;100.00;96188.25;5052400;28;24948;-76
2021/10/17 08:05:20;;;;;;;20.55;7.00;;;;;;;5.75;100.00;96188.56;5052264;28;24828;-75
2021/10/17 08:07:47;;;;;;;21.40;8.30;;;;;;;5.83;100.00;96196.81;5051559;28;24438;-75
2021/10/17 08:10:13;;;;;;;25.48;8.73;;;;;;;5.79;100.00;96197.81;5052332;28;24477;-76
2021/10/17 08:12:41;;;;;;;12.50;7.93;;;;;;;5.70;100.00;96185.28;5051726;28;24424;-76
2021/10/17 08:15:09;;;;;;;27.77;7.80;;;;;;;5.67;100.00;96190.53;5051749;28;24412;-76
2021/10/17 08:17:36;;;;;;;17.10;8.98;;;;;;;5.66;100.00;96194.00;5051983;28;24438;-76
2021/10/17 08:20:05;;;;;;;18.95;8.43;;;;;;;5.67;100.00;96190.53;5052221;28;24881;-77
2021/10/17 08:22:32;;;;;;;20.88;8.90;;;;;;;5.50;100.00;96194.56;5052833;28;24933;-77
2021/10/17 08:24:59;;;;;;;18.48;9.23;;;;;;;5.28;100.00;96198.81;5052002;28;24967;-77
2021/10/17 08:27:25;;;;;;;36.88;9.65;;;;;;;5.20;100.00;96195.66;5051789;28;25010;-76
2021/10/17 08:29:53;;;;;;;13.95;8.90;;;;;;;5.14;100.00;96199.28;5052218;28;24411;-76
2021/10/17 08:32:20;;;;;;;16.70;8.83;;;;;;;5.19;100.00;96189.69;5051874;28;24489;-75
2021/10/17 08:34:46;;;;;;;15.83;10.27;;;;;;;5.25;100.00;96196.34;5047891;28;24533;-75
2021/10/17 08:37:13;;;;;;;21.08;10.38;;;;;;;5.30;100.00;96191.88;5042686;28;24848;-80
2021/10/17 08:39:40;;;;;;;18.15;10.77;;;;;;;5.27;100.00;96203.09;5047904;28;24451;-78
2021/10/17 08:42:07;;;;;;;13.98;10.20;;;;;;;5.38;100.00;96199.28;5051858;28;24991;-75
2021/10/17 08:44:33;;;;;;;13.95;12.60;;;;;;;5.43;100.00;96195.69;5054863;28;24428;-76
2021/10/17 08:47:01;;;;;;;20.90;13.90;;;;;;;5.56;100.00;96196.94;5050791;28;25000;-76
2021/10/17 08:49:28;;;;;;;18.77;14.98;;;;;;;5.67;100.00;96198.25;5051307;28;24434;-76
2021/10/17 08:51:55;;;;;;;21.33;14.73;;;;;;;5.62;100.00;96200.16;5051404;28;24836;-76
2021/10/17 08:54:21;;;;;;;23.60;14.50;;;;;;;5.77;100.00;96197.84;5050525;28;24435;-76
2021/10/17 08:56:48;;;;;;;16.67;14.35;;;;;;;6.03;100.00;96202.06;5043947;28;24779;-76
2021/10/17 08:59:14;;;;;;;19.50;14.90;;;;;;;6.07;100.00;96211.31;5050819;28;24432;-76
2021/10/17 09:01:41;;;;;;;33.80;14.27;;;;;;;6.15;100.00;96211.03;5051560;28;24485;-79
2021/10/17 09:04:10;;;;;;;24.08;15.90;;;;;;;6.25;100.00;96204.66;5053278;28;24434;-77
2021/10/17 09:06:38;;;;;;;35.50;16.43;;;;;;;6.22;100.00;96202.19;5051674;28;24441;-77
2021/10/17 09:09:07;;;;;;;18.58;15.93;;;;;;;6.34;100.00;96195.75;5051985;28;24844;-77
2021/10/17 09:11:38;;;;;;;25.83;16.77;;;;;;;6.26;100.00;96196.03;5052387;28;24439;-76
2021/10/17 09:14:06;;;;;;;21.48;15.80;;;;;;;6.40;100.00;96203.22;5051419;28;24557;-77
2021/10/17 09:16:37;;;;;;;18.48;16.42;;;;;;;6.41;100.00;96207.44;5051013;28;24972;-78
2021/10/17 09:19:10;;;;;;;23.47;15.80;;;;;;;6.37;100.00;96197.34;5055961;28;20796;-77
2021/10/17 09:21:52;;;;;;;20.15;18.05;;;;;;;6.44;100.00;96197.03;5053852;28;24434;-77
2021/10/17 09:24:25;;;;;;;17.50;15.63;;;;;;;6.75;100.00;96196.66;5054314;28;24431;-78
2021/10/17 09:27:07;;;;;;;17.17;14.80;;;;;;;6.95;100.00;96198.41;5052794;28;24515;-78
2021/10/17 09:29:35;;;;;;;16.23;14.70;;;;;;;6.98;100.00;96197.44;5053370;28;20779;-77
2021/10/17 09:32:01;;;;;;;19.30;15.63;;;;;;;7.07;100.00;96191.06;5055268;28;24422;-78
2021/10/17 09:34:30;;;;;;;16.38;14.73;;;;;;;7.17;100.00;96192.34;5054174;28;24431;-78
2021/10/17 09:37:07;;;;;;;27.35;18.25;;;;;;;7.30;100.00;96188.34;5043040;28;24439;-78
2021/10/17 09:39:35;;;;;;;21.98;17.75;;;;;;;7.32;100.00;96188.28;5034394;28;24835;-78
2021/10/17 09:42:01;;;;;;;18.90;17.00;;;;;;;7.42;100.00;96192.97;5034507;28;24485;-78
2021/10/17 09:44:37;;;;;;;16.90;15.20;;;;;;;7.69;100.00;96184.94;5033944;28;24427;-78
2021/10/17 09:47:04;;;;;;;16.87;14.40;;;;;;;7.96;100.00;96183.66;5034009;28;20785;-78
2021/10/17 09:49:31;;;;;;;15.10;13.57;;;;;;;8.43;100.00;96182.41;5034082;28;24470;-78
2021/10/17 09:52:16;;;;;;;14.52;13.02;;;;;;;8.76;100.00;96184.28;5034433;28;20757;-78
2021/10/17 09:54:46;;;;;;;16.08;13.52;;;;;;;8.68;100.00;96180.31;5033141;28;24419;-77
2021/10/17 09:57:13;;;;;;;15.65;13.70;;;;;;;8.82;100.00;96182.19;5033272;28;20775;-78
2021/10/17 09:59:40;;;;;;;13.40;12.10;;;;;;;8.71;100.00;96185.34;5033988;28;20777;-78
2021/10/17 10:02:09;;;;;;;12.93;11.52;;;;;;;8.89;100.00;96181.00;5034259;28;20757;-78
2021/10/17 10:04:39;;;;;;;13.32;11.75;;;;;;;9.03;100.00;96182.06;5035606;28;20824;-77
2021/10/17 10:07:06;;;;;;;13.13;11.80;;;;;;;8.97;100.00;96183.19;5038537;28;20696;-78
2021/10/17 10:09:33;;;;;;;14.63;13.02;;;;;;;9.05;100.00;96173.34;5037330;28;24431;-77
2021/10/17 10:12:02;;;;;;;12.75;11.55;;;;;;;9.36;100.00;96185.53;5036754;28;24972;-77
2021/10/17 10:14:29;;;;;;;17.13;14.40;;;;;;;9.35;100.00;96183.84;5036751;28;20844;-77
2021/10/17 10:16:57;;;;;;;18.73;15.88;;;;;;;9.17;100.00;96185.63;5036236;28;24435;-76
2021/10/17 10:19:25;;;;;;;18.55;16.70;;;;;;;8.88;100.00;96183.66;5036208;28;24431;-76
2021/10/17 10:21:53;;;;;;;16.52;14.40;;;;;;;8.83;100.00;96186.47;5036429;28;24450;-77
2021/10/17 10:24:20;;;;;;;14.82;13.32;;;;;;;8.80;100.00;96190.94;5036756;28;24790;-77
2021/10/17 10:26:52;;;;;;;13.63;12.27;;;;;;;8.63;100.00;96184.84;5036399;28;20765;-77
2021/10/17 10:29:24;;;;;;;15.65;12.90;;;;;;;8.40;100.00;96185.97;5036180;28;24507;-77
2021/10/17 10:31:52;;;;;;;12.73;11.53;;;;;;;8.43;100.00;96188.41;5036234;28;20736;-78
2021/10/17 10:34:53;;;;;;;12.55;11.25;;;;;;;8.42;100.00;96184.16;5036139;28;24781;-77
2021/10/17 10:37:22;;;;;;;13.88;12.40;;;;;;;8.51;100.00;96180.28;4974858;28;20671;-78
2021/10/17 10:40:08;;;;;;;14.52;13.02;;;;;;;8.86;100.00;96183.75;5024144;28;20792;-77
2021/10/17 10:42:35;;;;;;;14.10;12.60;;;;;;;8.93;100.00;96182.50;5036163;28;20672;-76
2021/10/17 10:45:24;;;;;;;14.38;12.88;;;;;;;9.34;100.00;96179.56;5036403;28;20840;-78
2021/10/17 10:48:16;;;;;;;17.10;14.90;;;;;;;9.89;100.00;96178.44;5036158;28;20651;-77
2021/10/17 10:50:46;;;;;;;17.20;15.43;;;;;;;10.11;100.00;96178.97;5036297;28;20694;-77
2021/10/17 10:53:47;;;;;;;18.05;16.23;;;;;;;10.19;100.00;96175.94;5036235;28;21328;-77
2021/10/17 10:56:43;;;;;;;17.70;15.93;;;;;;;10.51;100.00;96179.38;5035861;28;20666;-78
2021/10/17 10:59:10;;;;;;;18.57;16.67;;;;;;;10.58;100.00;96178.13;5036120;28;20627;-78
2021/10/17 11:01:56;;;;;;;18.35;15.82;;;;;;;10.21;100.00;96173.28;5036328;28;20785;-77
2021/10/17 11:05:04;;;;;;;16.73;15.13;;;;;;;9.99;100.00;96178.81;5035467;28;24557;-76
2021/10/17 11:07:36;;;;;;;16.13;14.43;;;;;;;10.03;100.00;96160.44;5036239;28;21138;-77
2021/10/17 11:10:36;;;;;;;16.27;14.55;;;;;;;10.22;100.00;96167.19;5035841;28;24909;-77
2021/10/17 11:13:04;;;;;;;16.83;14.68;;;;;;;10.27;100.00;96160.03;5036308;28;24446;-76
2021/10/17 11:15:33;;;;;;;17.87;15.27;;;;;;;10.51;100.00;96163.03;5034756;28;24442;-76
2021/10/17 11:18:03;;;;;;;17.00;15.15;;;;;;;10.87;100.00;96155.75;5036139;28;24790;-77
2021/10/17 11:20:32;;;;;;;15.90;14.20;;;;;;;10.93;100.00;96161.47;5036515;28;24863;-77
2021/10/17 11:22:59;;;;;;;16.90;15.10;;;;;;;11.00;100.00;96144.66;5036337;28;21119;-77